createdAt,value
2022-10-02T00:00:09.254Z,13.90
2022-10-02T00:03:52.204Z,13.90
2022-10-02T00:07:45.984Z,13.90
2022-10-02T00:11:41.356Z,13.90
2022-10-02T00:15:28.860Z,13.90
2022-10-02T00:19:12.675Z,13.90
2022-10-02T00:23:07.311Z,14.00
2022-10-02T00:27:04.899Z,13.90
2022-10-02T00:30:58.513Z,13.90
2022-10-02T00:34:57.686Z,14.00
2022-10-02T00:38:54.366Z,14.00
2022-10-02T00:42:45.222Z,14.00
2022-10-02T00:46:40.810Z,14.00
2022-10-02T00:50:58.303Z,13.90
2022-10-02T00:54:46.291Z,13.90
2022-10-02T00:58:58.400Z,14.00
2022-10-02T01:02:45.078Z,14.00
2022-10-02T01:06:28.901Z,14.00
2022-10-02T01:10:12.718Z,14.00
2022-10-02T01:13:54.826Z,13.90
2022-10-02T01:17:36.789Z,13.90
2022-10-02T01:21:30.857Z,14.00
2022-10-02T01:25:12.890Z,13.90
2022-10-02T01:28:54.862Z,13.90
2022-10-02T01:32:42.748Z,13.90
2022-10-02T01:36:25.680Z,13.90
2022-10-02T01:40:11.159Z,13.90
2022-10-02T01:43:57.955Z,13.90
2022-10-02T01:47:44.029Z,13.90
2022-10-02T01:51:44.715Z,13.90
2022-10-02T01:55:46.720Z,13.90
2022-10-02T02:00:08.825Z,13.90
2022-10-02T02:04:03.327Z,13.90
2022-10-02T02:08:00.501Z,13.90
2022-10-02T02:11:47.169Z,13.90
2022-10-02T02:15:34.677Z,13.90
2022-10-02T02:19:25.787Z,13.90
2022-10-02T02:23:13.760Z,13.90
2022-10-02T02:26:59.017Z,13.90
2022-10-02T02:30:44.321Z,13.90
2022-10-02T02:34:32.821Z,14.00
2022-10-02T02:38:36.703Z,14.00
2022-10-02T02:42:26.357Z,14.00
2022-10-02T02:46:15.399Z,14.00
2022-10-02T02:50:03.192Z,14.00
2022-10-02T02:53:48.264Z,14.00
2022-10-02T02:57:37.108Z,14.00
2022-10-02T03:01:19.156Z,13.90
2022-10-02T03:05:01.155Z,13.90
2022-10-02T03:08:44.238Z,13.90
2022-10-02T03:12:52.484Z,13.90
2022-10-02T03:16:46.370Z,13.80
2022-10-02T03:20:41.683Z,13.90
2022-10-02T03:24:35.123Z,13.90
2022-10-02T03:28:55.150Z,13.80
2022-10-02T03:32:41.040Z,13.90
2022-10-02T03:36:24.716Z,13.80
2022-10-02T03:40:07.085Z,13.80
2022-10-02T03:43:48.949Z,13.80
2022-10-02T03:47:30.871Z,13.80
2022-10-02T03:51:12.736Z,13.80
2022-10-02T03:54:57.712Z,13.80
2022-10-02T03:58:45.284Z,13.80
2022-10-02T04:02:36.329Z,13.80
2022-10-02T04:06:21.442Z,13.80
2022-10-02T04:10:15.304Z,13.80
2022-10-02T04:14:06.765Z,13.80
2022-10-02T04:17:58.922Z,13.80
2022-10-02T04:21:54.571Z,13.80
2022-10-02T04:25:42.840Z,13.80
2022-10-02T04:29:32.594Z,13.80
2022-10-02T04:33:18.269Z,13.80
2022-10-02T04:37:15.493Z,13.80
2022-10-02T04:41:09.880Z,13.70
2022-10-02T04:45:05.530Z,13.70
2022-10-02T04:48:53.427Z,13.70
2022-10-02T04:52:56.739Z,13.70
2022-10-02T04:56:56.015Z,13.60
2022-10-02T05:01:01.580Z,13.60
2022-10-02T05:04:52.588Z,13.60
2022-10-02T05:08:59.565Z,13.60
2022-10-02T05:12:53.593Z,13.60
2022-10-02T05:17:13.404Z,13.60
2022-10-02T05:21:07.228Z,13.60
2022-10-02T05:24:58.447Z,13.60
2022-10-02T05:29:01.156Z,13.60
2022-10-02T05:32:51.832Z,13.60
2022-10-02T05:36:46.737Z,13.60
2022-10-02T05:40:48.326Z,13.60
2022-10-02T05:44:53.979Z,13.60
2022-10-02T05:48:46.949Z,13.60
2022-10-02T05:52:39.481Z,13.60
2022-10-02T05:56:32.344Z,13.60
2022-10-02T06:00:33.041Z,13.60
2022-10-02T06:04:26.962Z,13.60
2022-10-02T06:08:14.297Z,13.50
2022-10-02T06:12:03.095Z,13.50
2022-10-02T06:16:09.857Z,13.50
2022-10-02T06:20:03.551Z,13.40
2022-10-02T06:23:53.675Z,13.40
2022-10-02T06:28:09.656Z,13.40
2022-10-02T06:32:05.187Z,13.40
2022-10-02T06:36:05.563Z,13.30
2022-10-02T06:39:47.362Z,13.30
2022-10-02T06:43:35.304Z,13.20
2022-10-02T06:47:35.249Z,13.20
2022-10-02T06:51:46.333Z,13.20
2022-10-02T06:55:57.968Z,13.10
2022-10-02T06:59:58.965Z,13.00
2022-10-02T07:04:06.378Z,13.00
2022-10-02T07:07:51.256Z,12.90
2022-10-02T07:11:43.152Z,12.80
2022-10-02T07:15:28.566Z,12.70
2022-10-02T07:19:22.325Z,12.70
2022-10-02T07:23:24.302Z,12.60
2022-10-02T07:27:31.499Z,12.60
2022-10-02T07:31:25.411Z,12.60
2022-10-02T07:35:32.926Z,12.60
2022-10-02T07:39:33.205Z,12.60
2022-10-02T07:43:45.561Z,12.60
2022-10-02T07:48:12.323Z,12.60
2022-10-02T07:51:54.188Z,12.60
2022-10-02T07:55:41.658Z,12.50
2022-10-02T07:59:23.819Z,12.50
2022-10-02T08:03:29.524Z,12.50
2022-10-02T08:07:13.972Z,12.40
2022-10-02T08:11:08.247Z,12.40
2022-10-02T08:14:55.381Z,12.40
2022-10-02T08:19:02.068Z,12.40
2022-10-02T08:22:50.914Z,12.40
2022-10-02T08:26:52.051Z,12.40
2022-10-02T08:30:33.953Z,12.40
2022-10-02T08:34:18.948Z,12.50
2022-10-02T08:38:05.813Z,12.50
2022-10-02T08:42:01.285Z,12.60
2022-10-02T08:46:07.770Z,12.70
2022-10-02T08:50:01.543Z,12.70
2022-10-02T08:54:14.032Z,12.80
2022-10-02T08:58:02.981Z,12.80
2022-10-02T09:02:11.347Z,12.80
2022-10-02T09:05:59.376Z,12.80
2022-10-02T09:09:46.637Z,12.80
2022-10-02T09:13:54.317Z,12.80
2022-10-02T09:18:06.666Z,12.90
2022-10-02T09:21:56.375Z,13.00
2022-10-02T09:25:59.160Z,13.10
2022-10-02T09:29:44.812Z,13.20
2022-10-02T09:33:27.364Z,13.40
2022-10-02T09:37:53.228Z,13.60
2022-10-02T09:42:00.765Z,13.90
2022-10-02T09:45:57.454Z,14.20
2022-10-02T09:50:10.812Z,14.50
2022-10-02T09:54:21.601Z,14.70
2022-10-02T09:58:24.871Z,15.50
2022-10-02T10:02:36.374Z,16.70
2022-10-02T10:06:39.964Z,17.40
2022-10-02T10:10:50.169Z,17.90
2022-10-02T10:14:50.950Z,18.20
2022-10-02T10:19:03.252Z,19.20
2022-10-02T10:23:12.725Z,20.50
2022-10-02T10:27:22.033Z,21.60
2022-10-02T10:31:10.197Z,22.50
2022-10-02T10:35:23.281Z,23.40
2022-10-02T10:39:30.674Z,24.10
2022-10-02T10:43:57.799Z,24.70
2022-10-02T10:48:01.291Z,25.30
2022-10-02T10:52:07.524Z,25.70
2022-10-02T10:56:19.383Z,26.20
2022-10-02T11:00:15.880Z,26.20
2022-10-02T11:04:00.733Z,26.50
2022-10-02T11:08:05.916Z,26.90
2022-10-02T11:11:55.418Z,26.80
2022-10-02T11:15:56.505Z,26.60
2022-10-02T11:20:00.088Z,27.00
2022-10-02T11:24:26.153Z,27.60
2022-10-02T11:28:38.256Z,28.00
2022-10-02T11:32:35.217Z,28.50
2022-10-02T11:36:42.481Z,28.60
2022-10-02T11:40:59.507Z,28.60
2022-10-02T11:45:03.535Z,28.70
2022-10-02T11:49:31.651Z,28.60
2022-10-02T11:53:29.320Z,29.00
2022-10-02T11:57:20.349Z,29.30
2022-10-02T12:01:07.969Z,29.40
2022-10-02T12:04:52.700Z,29.70
2022-10-02T12:08:47.005Z,29.60
2022-10-02T12:12:51.632Z,29.70
2022-10-02T12:16:42.349Z,29.60
2022-10-02T12:21:23.354Z,29.50
2022-10-02T12:25:32.545Z,29.40
2022-10-02T12:29:45.945Z,29.40
2022-10-02T12:33:40.993Z,29.90
2022-10-02T12:37:45.987Z,30.20
2022-10-02T12:41:34.140Z,30.00
2022-10-02T12:45:22.335Z,28.70
2022-10-02T12:49:20.136Z,27.70
2022-10-02T12:53:20.568Z,27.40
2022-10-02T12:57:46.248Z,27.20
2022-10-02T13:01:31.856Z,27.40
2022-10-02T13:05:52.110Z,27.40
2022-10-02T13:09:45.729Z,26.40
2022-10-02T13:13:49.197Z,25.30
2022-10-02T13:17:39.878Z,24.30
2022-10-02T13:21:42.918Z,23.60
2022-10-02T13:25:42.761Z,23.20
2022-10-02T13:29:24.551Z,23.80
2022-10-02T13:33:16.814Z,25.10
2022-10-02T13:37:30.644Z,25.70
2022-10-02T13:41:30.629Z,26.30
2022-10-02T13:45:12.421Z,26.80
2022-10-02T13:49:09.349Z,27.30
2022-10-02T13:53:20.358Z,27.40
2022-10-02T13:57:13.497Z,26.80
2022-10-02T14:00:55.396Z,26.40
2022-10-02T14:05:06.542Z,25.80
2022-10-02T14:09:06.952Z,25.10
2022-10-02T14:13:14.967Z,24.50
2022-10-02T14:17:05.394Z,24.30
2022-10-02T14:20:59.642Z,24.60
2022-10-02T14:25:16.284Z,25.10
2022-10-02T14:29:27.468Z,25.70
2022-10-02T14:33:16.754Z,26.50
2022-10-02T14:37:39.082Z,27.10
2022-10-02T14:41:26.790Z,26.50
2022-10-02T14:45:41.118Z,25.50
2022-10-02T14:49:50.544Z,24.80
2022-10-02T14:53:51.111Z,24.30
2022-10-02T14:57:52.381Z,23.90
2022-10-02T15:01:42.294Z,23.50
2022-10-02T15:05:53.036Z,23.20
2022-10-02T15:10:00.521Z,22.90
2022-10-02T15:14:12.071Z,22.50
2022-10-02T15:18:25.189Z,22.30
2022-10-02T15:22:26.035Z,22.10
2022-10-02T15:26:22.771Z,22.00
2022-10-02T15:30:04.563Z,21.90
2022-10-02T15:34:06.690Z,21.90
2022-10-02T15:38:08.491Z,21.80
2022-10-02T15:42:09.254Z,21.70
2022-10-02T15:46:27.798Z,21.50
2022-10-02T15:50:18.770Z,21.30
2022-10-02T15:54:19.149Z,21.20
2022-10-02T15:58:06.862Z,21.00
2022-10-02T16:02:06.756Z,20.70
2022-10-02T16:05:59.977Z,20.50
2022-10-02T16:10:16.170Z,20.20
2022-10-02T16:14:27.616Z,19.90
2022-10-02T16:18:32.810Z,19.70
2022-10-02T16:22:20.180Z,19.50
2022-10-02T16:26:27.299Z,19.30
2022-10-02T16:30:13.466Z,19.10
2022-10-02T16:34:12.281Z,18.90
2022-10-02T16:37:56.936Z,18.70
2022-10-02T16:42:18.996Z,18.60
2022-10-02T16:46:21.446Z,18.50
2022-10-02T16:50:14.221Z,18.40
2022-10-02T16:54:17.538Z,18.40
2022-10-02T16:58:21.430Z,18.30
2022-10-02T17:02:31.108Z,18.20
2022-10-02T17:06:21.835Z,18.20
2022-10-02T17:10:19.360Z,18.10
2022-10-02T17:14:11.103Z,17.90
2022-10-02T17:18:23.979Z,17.80
2022-10-02T17:22:11.659Z,17.60
2022-10-02T17:26:11.031Z,17.40
2022-10-02T17:30:13.788Z,17.20
2022-10-02T17:34:11.921Z,17.00
2022-10-02T17:38:18.667Z,16.80
2022-10-02T17:42:22.329Z,16.60
2022-10-02T17:46:30.006Z,16.40
2022-10-02T17:50:29.835Z,16.20
2022-10-02T17:55:01.342Z,16.00
2022-10-02T17:59:07.431Z,15.80
2022-10-02T18:02:52.328Z,15.60
2022-10-02T18:06:48.720Z,15.50
2022-10-02T18:10:46.229Z,15.30
2022-10-02T18:14:52.816Z,15.20
2022-10-02T18:18:57.683Z,15.10
2022-10-02T18:22:43.138Z,15.10
2022-10-02T18:26:30.563Z,15.00
2022-10-02T18:30:20.227Z,15.00
2022-10-02T18:34:49.162Z,15.00
2022-10-02T18:38:47.145Z,15.00
2022-10-02T18:43:04.056Z,15.00
2022-10-02T18:47:23.103Z,14.90
2022-10-02T18:51:32.876Z,14.90
2022-10-02T18:55:17.584Z,14.90
2022-10-02T18:59:15.585Z,14.90
2022-10-02T19:03:15.398Z,14.90
2022-10-02T19:07:09.547Z,14.80
2022-10-02T19:10:51.674Z,14.80
2022-10-02T19:14:41.287Z,14.60
2022-10-02T19:18:31.235Z,14.50
2022-10-02T19:22:30.319Z,14.40
2022-10-02T19:26:21.577Z,14.40
2022-10-02T19:30:22.106Z,14.20
2022-10-02T19:34:07.367Z,14.10
2022-10-02T19:37:51.676Z,14.10
2022-10-02T19:41:41.946Z,13.80
2022-10-02T19:45:32.770Z,13.80
2022-10-02T19:49:38.438Z,13.60
2022-10-02T19:53:24.430Z,13.50
2022-10-02T19:57:13.022Z,13.30
2022-10-02T20:00:56.052Z,13.20
2022-10-02T20:04:38.606Z,13.20
2022-10-02T20:08:30.832Z,13.00
2022-10-02T20:12:21.895Z,13.00
2022-10-02T20:16:31.805Z,12.90
2022-10-02T20:20:16.738Z,12.80
2022-10-02T20:24:01.318Z,12.70
2022-10-02T20:27:52.839Z,12.60
2022-10-02T20:31:45.166Z,12.50
2022-10-02T20:35:37.413Z,12.40
2022-10-02T20:39:24.756Z,12.40
2022-10-02T20:43:32.670Z,12.20
2022-10-02T20:47:45.483Z,12.20
2022-10-02T20:51:40.822Z,12.00
2022-10-02T20:56:03.127Z,11.90
2022-10-02T21:00:03.598Z,11.80
2022-10-02T21:04:07.029Z,11.80
2022-10-02T21:08:18.195Z,11.70
2022-10-02T21:12:41.770Z,11.60
2022-10-02T21:16:54.626Z,11.50
2022-10-02T21:21:02.241Z,11.40
2022-10-02T21:24:48.887Z,11.30
2022-10-02T21:28:55.844Z,11.20
2022-10-02T21:32:56.517Z,11.20
2022-10-02T21:36:58.960Z,11.10
2022-10-02T21:41:12.653Z,11.00
2022-10-02T21:45:32.406Z,10.90
2022-10-02T21:49:32.891Z,10.80
2022-10-02T21:53:52.289Z,10.80
2022-10-02T21:57:36.990Z,10.70
2022-10-02T22:01:36.295Z,10.60
2022-10-02T22:06:19.915Z,10.60
2022-10-02T22:10:22.236Z,10.50
2022-10-02T22:14:19.207Z,10.50
2022-10-02T22:18:13.693Z,10.40
2022-10-02T22:22:13.323Z,10.40
2022-10-02T22:25:55.099Z,10.30
2022-10-02T22:29:47.863Z,10.30
2022-10-02T22:34:01.548Z,10.20
2022-10-02T22:38:21.609Z,10.10
2022-10-02T22:42:12.162Z,10.10
2022-10-02T22:46:20.492Z,10.00
2022-10-02T22:50:11.411Z,10.00
2022-10-02T22:54:25.619Z,10.00
2022-10-02T22:58:29.136Z,9.90
2022-10-02T23:02:35.516Z,9.90
2022-10-02T23:06:30.530Z,9.80
2022-10-02T23:10:35.929Z,9.80
2022-10-02T23:14:30.870Z,9.80
2022-10-02T23:18:27.589Z,9.80
2022-10-02T23:22:23.479Z,9.70
2022-10-02T23:26:17.072Z,9.70
2022-10-02T23:30:08.236Z,9.70
2022-10-02T23:34:11.485Z,9.70
2022-10-02T23:38:02.513Z,9.70
2022-10-02T23:41:49.024Z,9.60
2022-10-02T23:45:39.455Z,9.60
2022-10-02T23:49:44.052Z,9.50
2022-10-02T23:53:40.410Z,9.50
2022-10-02T23:57:33.097Z,9.40
